Johannesburg, MI (49751)

2:26 PM EDT on July 27, 2016 (GMT -0400)
KMILEWIS2 | | Change Station

Elev 1266 ft 44.89 °N, 84.36 °W | Updated 12 minutes ago

Scattered Clouds
Scattered Clouds
80.8 °F
Feels Like 81 °F
N
1.3
Wind Variable Wind from NW
Gusts 1.6 mph

Today
High -- | Low -- °F
--% Chance of Precip.
Yesterday
High -- | Low -- °F
Precip. -- in
Pressure 29.98 in
Visibility 10.0 miles
Clouds Few 8000 ft
Scattered Clouds 10000 ft
Heat Index 81 °F
Dew Point 59 °F
Humidity 48%
Rainfall 0.00 in
Snow Depth Not available.
6:18 AM 9:09 PM
Last Quarter, 41% visible
METAR KGLR 271753Z AUTO 27005KT 10SM FEW080 SCT100 26/16 A3000 RMK AO2 LTG DSNT NE RAB07E47 SLP151 P0001 60001 T02560161 10294 20217 50003
Pressure 29.98 in
Visibility 10.0 miles
Clouds Few 8000 ft
Scattered Clouds 10000 ft
Heat Index 81 °F
Dew Point 59 °F
Humidity 48%
Rainfall 0.00 in
Snow Depth Not available.
6:18 AM 9:09 PM
Last Quarter, 41% visible
METAR KGLR 271753Z AUTO 27005KT 10SM FEW080 SCT100 26/16 A3000 RMK AO2 LTG DSNT NE RAB07E47 SLP151 P0001 60001 T02560161 10294 20217 50003

10-Day Weather Forecast

Almanac

Astronomy

Jul. 27, 2016 Rise Set
Actual Time
Civil Twilight
Nautical Twilight
Astronomical Twilight
Moon
Length of Visible Light
Length of Day
Tomorrow will be .
, % of the Moon is Illuminated

Today's Extremes

State Highs State Lows

Community

WunderPhotos

Upload Photos

1,927,894 photos uploaded!

WunderBlog® & News

Nearby

Air Quality

  Air Quality AQ Index Pollutant
Not available.

Snow Depth

Station Depth Elevation

Earthquake Activity

City Distance Mag. Time & Date
Minimum magnitude displayed is 2.5.

Coastal Water Temperatures

Place Temperature

Stations

Nearby Weather Stations

Station Location Temp. Windchill Dew Point Humidity Wind Precip. Elev Updated Type
                   

Watches & Warnings

There are currently no watches in effect.